Time;durP1;ratioP1;P1;durP2;ratioP2;P2;SDS_P1;SDS_P2;PMS_P1;PMS_P2;Temp;Humidity;BMP_temperature;BMP_pressure;BME280_temperature;BME280_humidity;BME280_pressure;Samples;Min_cycle;Max_cycle;Signal;HPM_P1;HPM_P2
2022/05/25 00:00:45;;;;;;;12.10;6.38;;;;;;;15.90;80.12;99218.50;4976998;28;20405;-92
2022/05/25 00:03:11;;;;;;;11.90;6.40;;;;;;;15.94;80.01;99225.72;4960590;28;20033;-91
2022/05/25 00:05:37;;;;;;;11.57;5.90;;;;;;;15.79;80.48;99207.06;4960689;28;20116;-91
2022/05/25 00:08:03;;;;;;;7.95;5.85;;;;;;;15.73;80.42;99205.59;4976666;28;20559;-91
2022/05/25 00:10:28;;;;;;;9.85;7.03;;;;;;;15.82;80.57;99224.66;4960411;28;20022;-92
2022/05/25 00:12:53;;;;;;;9.60;6.38;;;;;;;15.71;80.52;99213.22;4961078;28;20487;-91
2022/05/25 00:15:19;;;;;;;13.63;7.78;;;;;;;15.81;80.83;99226.56;4959841;28;20022;-91
2022/05/25 00:17:44;;;;;;;11.00;8.32;;;;;;;15.67;81.20;99215.72;4960238;28;20073;-92
2022/05/25 00:20:10;;;;;;;12.30;8.32;;;;;;;15.67;81.10;99213.00;4976107;28;20022;-92
2022/05/25 00:22:45;;;;;;;10.10;7.13;;;;;;;15.60;81.13;99218.03;4976613;28;20038;-91
2022/05/25 00:25:13;;;;;;;15.15;7.20;;;;;;;15.71;80.77;99226.78;4976329;28;20035;-92
2022/05/25 00:27:39;;;;;;;11.90;7.00;;;;;;;15.64;80.40;99223.66;4976786;28;20045;-92
2022/05/25 00:30:05;;;;;;;12.20;8.23;;;;;;;15.53;80.88;99210.31;4960383;28;20105;-91
2022/05/25 00:32:31;;;;;;;14.45;8.15;;;;;;;15.52;80.90;99213.34;4960313;28;20029;-91
2022/05/25 00:34:56;;;;;;;11.23;7.85;;;;;;;15.49;80.78;99208.53;4975983;28;20061;-92
2022/05/25 00:37:22;;;;;;;14.13;8.18;;;;;;;15.51;80.88;99236.16;4976056;28;20022;-91
2022/05/25 00:39:47;;;;;;;11.27;8.40;;;;;;;15.41;80.43;99223.63;4976289;28;20030;-92
2022/05/25 00:42:13;;;;;;;10.32;7.30;;;;;;;15.35;80.03;99219.41;4959906;28;20029;-91
2022/05/25 00:44:38;;;;;;;16.85;7.40;;;;;;;15.36;80.43;99232.66;4959899;28;20026;-92
2022/05/25 00:47:04;;;;;;;11.63;8.00;;;;;;;15.21;80.87;99221.31;4976063;28;20034;-92
2022/05/25 00:49:31;;;;;;;13.43;8.13;;;;;;;15.36;80.99;99248.16;4975799;28;20081;-91
2022/05/25 00:52:02;;;;;;;9.05;7.18;;;;;;;15.36;80.94;99235.38;4976366;28;20057;-91
2022/05/25 00:54:29;;;;;;;15.77;7.90;;;;;;;15.48;81.29;99247.63;4960797;28;20034;-92
2022/05/25 00:56:55;;;;;;;16.73;8.65;;;;;;;15.40;81.69;99232.03;4975824;28;20030;-92
2022/05/25 00:59:24;;;;;;;11.45;7.82;;;;;;;15.42;82.04;99244.22;4976164;28;20026;-91
2022/05/25 01:01:50;;;;;;;10.68;7.95;;;;;;;15.52;81.58;99237.75;4960245;28;20485;-92
2022/05/25 01:04:15;;;;;;;10.45;7.05;;;;;;;15.49;80.70;99241.09;4975798;28;20029;-92
2022/05/25 01:06:41;;;;;;;11.48;6.70;;;;;;;15.61;80.43;99270.44;4959942;28;20034;-92
2022/05/25 01:09:16;;;;;;;10.68;6.75;;;;;;;15.59;79.94;99262.59;4992199;28;20022;-93
2022/05/25 01:11:52;;;;;;;6.80;6.05;;;;;;;15.43;79.75;99240.38;4975904;28;20026;-92
2022/05/25 01:14:43;;;;;;;8.55;5.85;;;;;;;15.57;79.38;99270.22;4977232;28;20055;-93
2022/05/25 01:17:30;;;;;;;12.30;5.97;;;;;;;15.52;79.56;99271.16;4975995;28;20031;-92
2022/05/25 01:20:18;;;;;;;7.88;6.03;;;;;;;15.31;79.81;99237.38;4992080;28;20032;-92
2022/05/25 01:23:05;;;;;;;10.10;5.70;;;;;;;15.39;79.33;99263.81;4962423;28;20037;-92
2022/05/25 01:26:05;;;;;;;10.85;6.10;;;;;;;15.45;79.66;99265.31;4993458;28;20407;-92
2022/05/25 01:28:40;;;;;;;11.55;5.88;;;;;;;15.27;79.54;99258.09;4996064;28;20074;-92
2022/05/25 01:31:11;;;;;;;8.70;5.95;;;;;;;15.33;79.82;99267.72;4997557;28;20477;-92
2022/05/25 01:33:57;;;;;;;8.57;5.82;;;;;;;15.40;79.42;99268.16;4979233;28;20034;-92
2022/05/25 01:36:33;;;;;;;8.63;5.78;;;;;;;15.46;79.25;99272.34;4964794;28;20026;-93
2022/05/25 01:39:07;;;;;;;8.77;6.20;;;;;;;15.34;79.43;99266.63;4995013;28;20034;-92
2022/05/25 01:42:06;;;;;;;6.88;6.00;;;;;;;15.41;79.42;99267.03;4963853;28;20026;-92
2022/05/25 01:44:53;;;;;;;10.38;6.22;;;;;;;15.34;79.50;99270.16;4989979;28;20128;-92
2022/05/25 01:47:23;;;;;;;9.18;6.93;;;;;;;15.09;79.92;99233.50;5013410;28;20109;-94
2022/05/25 01:49:58;;;;;;;8.52;6.95;;;;;;;15.12;80.34;99237.50;5008468;28;20049;-96
2022/05/25 01:52:32;;;;;;;8.90;6.70;;;;;;;15.02;80.12;99230.38;4992869;28;20026;-95
2022/05/25 01:55:00;;;;;;;6.78;5.90;;;;;;;15.11;79.73;99252.19;5004930;28;20065;-89
2022/05/25 01:57:27;;;;;;;9.20;5.90;;;;;;;15.14;78.83;99236.09;4978879;28;20050;-90
2022/05/25 01:59:52;;;;;;;8.07;6.65;;;;;;;15.06;79.36;99227.88;4962466;28;20026;-90
2022/05/25 02:05:13;;;;;;;6.43;5.82;;;;;;;15.01;79.67;99242.34;4981248;28;20086;-90
2022/05/25 02:08:07;;;;;;;8.32;6.28;;;;;;;14.97;80.02;99244.03;4978491;28;20077;-89
2022/05/25 02:10:46;;;;;;;8.02;6.53;;;;;;;14.94;80.05;99241.91;4994386;28;20404;-90
2022/05/25 02:13:27;;;;;;;8.85;5.53;;;;;;;15.02;79.55;99241.22;4979626;28;20033;-90
2022/05/25 02:15:52;;;;;;;9.88;5.70;;;;;;;15.22;78.32;99266.34;4962626;28;20026;-90
2022/05/25 02:18:51;;;;;;;7.80;5.82;;;;;;;15.30;78.14;99281.91;4994326;28;20484;-90
2022/05/25 02:21:20;;;;;;;8.68;5.72;;;;;;;15.07;78.96;99257.41;4994439;28;20022;-90
2022/05/25 02:24:16;;;;;;;8.38;5.53;;;;;;;15.11;79.10;99269.25;4994346;28;20034;-89
2022/05/25 02:26:52;;;;;;;9.45;6.00;;;;;;;14.95;79.65;99260.59;4973687;28;20097;-90
2022/05/25 02:29:39;;;;;;;8.57;6.00;;;;;;;14.91;79.69;99264.22;4962967;28;20027;-90
2022/05/25 02:32:22;;;;;;;8.98;6.38;;;;;;;14.98;79.32;99267.31;4977784;28;20404;-90
2022/05/25 02:34:49;;;;;;;6.38;5.63;;;;;;;15.07;79.28;99262.81;4977998;28;20030;-89
2022/05/25 02:37:16;;;;;;;8.25;5.95;;;;;;;15.05;79.71;99267.75;4977625;28;20026;-90
2022/05/25 02:39:42;;;;;;;9.98;5.70;;;;;;;15.01;79.47;99276.78;4962201;28;20100;-91
2022/05/25 02:42:15;;;;;;;6.07;5.47;;;;;;;14.99;78.41;99255.38;4961942;28;20058;-89
2022/05/25 02:44:41;;;;;;;6.03;5.45;;;;;;;15.04;77.73;99259.91;4978513;28;20042;-90
2022/05/25 02:47:07;;;;;;;6.03;5.00;;;;;;;15.17;76.94;99272.69;4961511;28;20040;-90
2022/05/25 02:49:32;;;;;;;6.80;5.10;;;;;;;15.28;77.00;99286.84;4961344;28;20505;-90
2022/05/25 02:51:58;;;;;;;5.38;4.85;;;;;;;15.35;76.30;99279.09;4961343;28;20034;-91
2022/05/25 02:54:23;;;;;;;8.68;5.10;;;;;;;15.32;75.95;99264.22;4977916;28;20034;-89
2022/05/25 02:56:49;;;;;;;8.55;5.22;;;;;;;15.30;76.30;99268.34;4961209;28;20042;-89
2022/05/25 02:59:15;;;;;;;9.18;5.43;;;;;;;15.04;77.87;99260.69;4961276;28;20027;-89
2022/05/25 03:01:40;;;;;;;11.80;5.78;;;;;;;15.06;77.84;99279.38;4961431;28;20030;-90
2022/05/25 03:04:06;;;;;;;12.43;6.00;;;;;;;14.86;78.05;99246.16;4961384;28;20031;-90
2022/05/25 03:06:31;;;;;;;14.45;6.05;;;;;;;14.93;78.76;99251.16;4961422;28;20124;-90
2022/05/25 03:08:57;;;;;;;13.10;6.03;;;;;;;14.94;78.23;99263.59;4977539;28;20472;-90
2022/05/25 03:11:22;;;;;;;6.35;5.75;;;;;;;14.87;77.96;99261.28;4977353;28;20507;-90
2022/05/25 03:13:49;;;;;;;7.68;6.07;;;;;;;14.86;78.46;99264.31;4961093;28;20045;-90
2022/05/25 03:16:15;;;;;;;6.97;6.28;;;;;;;14.78;78.97;99270.44;4961241;28;20113;-89
2022/05/25 03:18:42;;;;;;;9.70;6.07;;;;;;;14.80;78.68;99270.94;4961367;28;20066;-89
2022/05/25 03:21:08;;;;;;;11.07;6.22;;;;;;;14.82;79.01;99280.38;4961092;28;20030;-89
2022/05/25 03:23:34;;;;;;;9.68;6.78;;;;;;;14.80;79.07;99279.88;4961119;28;20041;-90
2022/05/25 03:26:02;;;;;;;9.77;6.72;;;;;;;14.79;79.43;99288.28;4960894;28;20400;-88
2022/05/25 03:28:28;;;;;;;13.80;6.65;;;;;;;14.87;78.96;99310.09;4977039;28;20459;-90
2022/05/25 03:30:54;;;;;;;11.73;6.88;;;;;;;14.69;79.31;99303.63;4977560;28;20025;-89
2022/05/25 03:33:20;;;;;;;12.98;6.95;;;;;;;14.68;79.32;99306.63;4960875;28;20091;-89
2022/05/25 03:35:45;;;;;;;9.55;7.30;;;;;;;14.65;79.40;99302.63;4960635;28;20088;-91
2022/05/25 03:38:10;;;;;;;9.65;7.15;;;;;;;14.64;79.49;99311.03;4977131;28;20409;-91
2022/05/25 03:40:37;;;;;;;12.63;7.43;;;;;;;14.61;80.04;99317.88;4960793;28;20022;-90
2022/05/25 03:43:06;;;;;;;14.27;7.57;;;;;;;14.60;80.36;99310.81;4961359;28;20042;-89
2022/05/25 03:46:06;;;;;;;11.45;7.28;;;;;;;14.58;79.60;99306.81;4961122;28;20512;-91
2022/05/25 03:48:32;;;;;;;17.45;7.72;;;;;;;14.61;79.65;99312.44;4976588;28;20025;-90
2022/05/25 03:51:03;;;;;;;11.20;8.57;;;;;;;14.65;80.08;99307.22;4976439;28;20505;-89
2022/05/25 03:53:28;;;;;;;14.75;7.15;;;;;;;14.67;79.98;99319.41;4958409;28;20034;-90
2022/05/25 03:55:54;;;;;;;15.38;7.20;;;;;;;14.67;79.84;99318.56;4941201;28;20058;-90
2022/05/25 03:58:19;;;;;;;11.10;6.70;;;;;;;14.75;79.29;99320.59;4958022;28;20515;-89
2022/05/25 04:00:45;;;;;;;10.27;6.70;;;;;;;14.84;79.00;99316.13;4957402;28;20038;-89
2022/05/25 04:03:15;;;;;;;24.08;11.18;;;;;;;14.96;79.04;99329.19;4941207;28;20473;-90
2022/05/25 04:05:40;;;;;;;11.20;8.15;;;;;;;15.05;78.22;99323.88;4946896;28;20030;-89
2022/05/25 04:08:06;;;;;;;17.92;8.70;;;;;;;14.92;77.81;99304.59;4960574;28;20022;-93
2022/05/25 04:10:32;;;;;;;14.27;8.27;;;;;;;15.04;77.60;99330.41;4960301;28;20026;-90
2022/05/25 04:12:58;;;;;;;13.95;8.32;;;;;;;15.16;77.30;99330.72;4960087;28;20035;-90
2022/05/25 04:15:25;;;;;;;30.70;10.55;;;;;;;15.24;77.08;99337.38;4977770;28;20034;-91
2022/05/25 04:17:51;;;;;;;11.35;6.95;;;;;;;15.25;76.68;99331.66;4976423;28;20472;-91
2022/05/25 04:20:17;;;;;;;8.88;6.43;;;;;;;15.43;76.15;99343.50;4977622;28;20037;-91
2022/05/25 04:22:42;;;;;;;15.38;7.68;;;;;;;15.40;76.86;99327.84;4961398;28;20498;-89
2022/05/25 04:25:10;;;;;;;18.20;8.15;;;;;;;15.43;77.92;99324.50;4961985;28;20034;-91
2022/05/25 04:27:37;;;;;;;12.23;6.68;;;;;;;15.60;76.78;99350.22;4976773;28;20484;-90
2022/05/25 04:30:04;;;;;;;12.00;6.32;;;;;;;15.57;76.67;99330.72;4977299;28;20096;-91
2022/05/25 04:32:29;;;;;;;12.15;8.35;;;;;;;15.56;77.18;99323.72;4960908;28;20472;-91
2022/05/25 04:34:57;;;;;;;13.88;7.88;;;;;;;15.67;77.58;99323.50;4977082;28;20041;-89
2022/05/25 04:40:10;;;;;;;110.18;24.58;;;;;;;15.68;76.88;99322.38;4980597;28;20464;-91
2022/05/25 04:42:36;;;;;;;25.40;8.80;;;;;;;15.84;77.20;99339.19;4959424;28;20041;-90
2022/05/25 04:45:02;;;;;;;10.48;6.40;;;;;;;15.80;76.62;99340.91;4992990;28;20164;-91
2022/05/25 04:47:31;;;;;;;14.05;6.13;;;;;;;15.68;75.41;99322.38;4960418;28;20030;-91
2022/05/25 04:49:56;;;;;;;21.55;7.70;;;;;;;15.94;75.34;99355.28;4972773;28;20501;-91
2022/05/25 04:52:22;;;;;;;12.27;7.00;;;;;;;15.82;76.33;99334.06;4960740;28;20038;-92
2022/05/25 04:54:51;;;;;;;25.52;7.63;;;;;;;15.82;75.92;99335.97;4945472;28;20022;-93
2022/05/25 04:57:20;;;;;;;9.35;6.05;;;;;;;16.02;76.02;99354.56;4979347;28;20104;-93
2022/05/25 04:59:49;;;;;;;8.60;6.65;;;;;;;15.95;75.54;99346.00;4965217;28;20037;-93
2022/05/25 05:02:18;;;;;;;15.48;7.68;;;;;;;16.17;75.32;99370.50;4968156;28;20026;-96
2022/05/25 05:04:46;;;;;;;23.35;7.50;;;;;;;16.22;74.92;99356.00;4984106;28;20034;-93
2022/05/25 05:07:12;;;;;;;20.70;10.07;;;;;;;16.36;74.35;99350.53;4950034;28;20035;-94
2022/05/25 05:09:42;;;;;;;11.50;7.38;;;;;;;16.48;73.77;99352.72;4982071;28;20034;-91
2022/05/25 05:12:08;;;;;;;8.95;6.10;;;;;;;16.54;73.60;99355.00;4969065;28;20033;-90
2022/05/25 05:14:34;;;;;;;17.05;6.90;;;;;;;16.56;73.67;99358.19;4983170;28;20040;-91
2022/05/25 05:27:08;;;;;;;11.23;6.55;;;;;;;16.98;72.68;99366.19;4934252;28;20513;-92
2022/05/25 05:29:36;;;;;;;18.90;7.45;;;;;;;16.93;73.18;99341.81;4983399;28;20042;-95
2022/05/25 05:32:13;;;;;;;13.63;6.53;;;;;;;17.19;72.02;99347.41;4976381;28;20026;-95
2022/05/25 05:34:56;;;;;;;16.48;6.55;;;;;;;17.28;72.27;99342.00;5010468;28;20064;-96
2022/05/25 05:37:49;;;;;;;16.35;6.93;;;;;;;17.26;71.40;99334.13;4994839;28;20472;-95
2022/05/25 05:40:18;;;;;;;13.23;6.38;;;;;;;17.30;72.04;99337.03;5006826;28;20492;-92
2022/05/25 05:42:46;;;;;;;12.65;5.82;;;;;;;17.55;71.37;99357.31;5004739;28;20026;-92
2022/05/25 05:45:19;;;;;;;21.05;5.72;;;;;;;17.57;70.72;99350.44;4987494;28;20029;-92
2022/05/25 05:47:51;;;;;;;10.48;5.70;;;;;;;17.81;70.68;99359.31;5003133;28;20026;-91
2022/05/25 05:50:17;;;;;;;;;;;;;;;17.98;70.95;99367.56;4988575;28;20121;-95
2022/05/25 05:52:43;;;;;;;27.20;18.48;;;;;;;17.91;71.10;99346.25;5002946;28;19944;-92
2022/05/25 05:55:09;;;;;;;26.40;10.18;;;;;;;18.05;70.02;99359.69;4988895;28;20025;-94
2022/05/25 05:58:11;;;;;;;15.40;7.63;;;;;;;18.19;69.96;99365.00;5006830;28;20388;-94
2022/05/25 06:00:41;;;;;;;9.38;5.78;;;;;;;18.37;68.53;99358.44;5017660;28;20038;-96
2022/05/25 06:03:34;;;;;;;11.27;5.22;;;;;;;18.52;67.98;99359.88;5012780;28;20088;-96
2022/05/25 06:06:19;;;;;;;11.40;4.95;;;;;;;18.60;67.90;99349.31;4957163;28;20077;-95
2022/05/25 06:14:36;;;;;;;7.25;4.47;;;;;;;18.84;65.33;99340.63;4969358;28;20051;-95
2022/05/25 06:23:26;;;;;;;16.50;5.10;;;;;;;19.30;64.92;99355.41;4945470;28;20110;-96
2022/05/25 06:25:52;;;;;;;17.80;5.22;;;;;;;19.30;65.31;99342.59;4916455;29;20040;-95
2022/05/25 06:28:20;;;;;;;11.02;5.50;;;;;;;19.50;64.56;99346.50;4911940;29;20036;-94
2022/05/25 06:31:08;;;;;;;31.10;6.60;;;;;;;19.47;64.48;99340.91;4895883;29;20043;-95
2022/05/25 06:34:10;;;;;;;11.73;5.07;;;;;;;19.63;63.76;99331.03;4908989;29;20153;-94
2022/05/25 06:36:52;;;;;;;30.85;11.43;;;;;;;19.74;63.83;99336.94;4908773;29;20522;-94
2022/05/25 06:39:18;;;;;;;22.77;9.40;;;;;;;19.71;63.92;99338.38;4898204;29;20131;-96
2022/05/25 06:41:52;;;;;;;12.90;4.57;;;;;;;19.98;62.82;99348.03;4909971;29;20070;-93
2022/05/25 06:45:20;;;;;;;13.60;4.78;;;;;;;20.22;63.29;99362.19;4895219;29;20039;-94
2022/05/25 06:52:12;;;;;;;15.18;5.85;;;;;;;20.36;62.99;99338.91;4848905;29;20057;-95
2022/05/25 06:54:39;;;;;;;11.07;4.60;;;;;;;20.65;62.68;99356.38;4836181;29;20503;-94
2022/05/25 06:57:07;;;;;;;12.60;5.03;;;;;;;20.72;62.17;99364.03;4888754;29;20036;-94
2022/05/25 06:59:36;;;;;;;16.35;6.35;;;;;;;20.84;62.44;99371.50;4889449;29;20037;-94
2022/05/25 07:02:14;;;;;;;15.00;8.13;;;;;;;20.92;61.62;99352.25;4883717;29;20458;-96
2022/05/25 07:04:42;;;;;;;15.77;5.65;;;;;;;21.03;62.14;99352.63;4867948;29;20096;-95
2022/05/25 07:07:27;;;;;;;15.10;7.20;;;;;;;21.18;62.24;99362.91;4872198;29;20508;-93
2022/05/25 07:09:58;;;;;;;12.27;6.10;;;;;;;21.22;61.97;99345.81;4895183;29;20136;-95
2022/05/25 07:12:23;;;;;;;15.80;5.65;;;;;;;21.42;61.87;99344.94;4874094;29;20052;-93
2022/05/25 07:14:49;;;;;;;13.93;5.80;;;;;;;21.47;61.73;99352.13;4876009;29;20077;-93
2022/05/25 07:17:14;;;;;;;14.07;4.68;;;;;;;21.60;61.78;99356.47;4871119;29;20488;-93
2022/05/25 07:19:40;;;;;;;15.90;4.55;;;;;;;21.65;60.62;99361.72;4871000;29;20116;-92
2022/05/25 07:23:24;;;;;;;5.97;4.00;;;;;;;21.74;60.86;99358.88;4900889;29;20142;-91
2022/05/25 07:26:06;;;;;;;289.45;160.00;;;;;;;22.02;60.51;99385.56;4964364;28;20026;-96
2022/05/25 07:37:26;;;;;;;10.32;4.50;;;;;;;22.25;59.54;99375.75;5224817;23;20062;-95
2022/05/25 07:44:00;;;;;;;7.90;3.80;;;;;;;22.44;57.95;99380.59;4887403;29;20711;-95
2022/05/25 07:46:42;;;;;;;11.90;4.78;;;;;;;22.50;58.48;99354.50;4907293;29;20040;-95
2022/05/25 07:50:09;;;;;;;22.15;5.13;;;;;;;22.50;58.03;99340.00;4945993;29;20063;-96
2022/05/25 07:52:37;;;;;;;9.75;3.95;;;;;;;22.67;58.06;99339.69;4960960;29;20039;-94
2022/05/25 07:55:11;;;;;;;22.20;5.53;;;;;;;22.89;58.26;99362.22;4948781;29;20022;-93
2022/05/25 07:57:39;;;;;;;11.57;4.50;;;;;;;23.14;57.55;99382.94;4948665;28;20122;-92
2022/05/25 08:00:08;;;;;;;14.95;4.38;;;;;;;23.04;57.11;99357.94;4925160;29;20458;-93
2022/05/25 08:08:14;;;;;;;16.25;10.45;;;;;;;23.39;57.37;99378.09;4928174;29;20573;-93
2022/05/25 08:10:52;;;;;;;11.43;4.47;;;;;;;23.33;57.21;99360.28;4927208;29;20040;-93
2022/05/25 08:13:21;;;;;;;6.95;5.55;;;;;;;23.49;55.17;99357.53;4909743;29;20031;-91
2022/05/25 08:15:55;;;;;;;9.90;5.32;;;;;;;23.66;55.03;99361.03;4908384;29;20219;-93
2022/05/25 08:18:22;;;;;;;9.48;4.93;;;;;;;23.71;55.59;99353.31;4928043;29;20039;-93
2022/05/25 08:24:48;;;;;;;58.80;44.95;;;;;;;23.84;55.50;99350.50;4980400;28;20125;-95
2022/05/25 08:27:18;;;;;;;80.25;67.60;;;;;;;23.96;54.64;99362.16;4974975;28;20034;-91
2022/05/25 08:29:55;;;;;;;10.55;4.35;;;;;;;23.89;54.80;99366.72;4980448;28;20444;-91
2022/05/25 08:32:20;;;;;;;25.85;5.25;;;;;;;24.13;54.90;99373.94;4980920;28;20349;-94
2022/05/25 08:34:54;;;;;;;8.82;5.30;;;;;;;24.17;54.45;99367.34;4978618;28;20030;-93
2022/05/25 08:37:23;;;;;;;5.45;3.88;;;;;;;24.37;53.61;99368.16;4975422;28;20162;-92
2022/05/25 08:39:54;;;;;;;12.95;4.85;;;;;;;24.36;52.11;99358.34;4946153;28;20037;-92
2022/05/25 08:42:20;;;;;;;7.85;3.70;;;;;;;24.44;51.97;99359.25;4941514;29;20023;-90
2022/05/25 08:44:47;;;;;;;11.20;3.97;;;;;;;24.60;52.26;99387.53;4949241;28;20117;-93
2022/05/25 08:47:44;;;;;;;9.90;4.80;;;;;;;24.44;52.72;99364.75;4923799;29;20148;-94
2022/05/25 08:50:16;;;;;;;9.25;4.00;;;;;;;24.55;52.42;99376.00;4930016;29;20035;-95
2022/05/25 08:52:44;;;;;;;;;;;;;;;24.68;52.91;99388.50;4924607;29;20167;-92
2022/05/25 08:55:11;;;;;;;10.65;3.60;;;;;;;24.69;51.77;99390.06;4941168;29;19911;-92
2022/05/25 08:57:43;;;;;;;6.47;3.80;;;;;;;24.67;51.29;99375.06;4946940;29;20041;-92
2022/05/25 09:00:14;;;;;;;11.30;4.10;;;;;;;24.65;51.93;99372.69;4931491;29;20390;-94
2022/05/25 09:10:27;;;;;;;8.27;3.90;;;;;;;24.77;51.94;99400.06;4946509;29;20100;-95
2022/05/25 09:12:58;;;;;;;9.60;4.28;;;;;;;24.84;51.74;99382.09;4927507;29;20028;-93
2022/05/25 09:15:28;;;;;;;12.85;4.70;;;;;;;24.97;50.82;99378.81;4927423;29;20450;-93
2022/05/25 09:18:02;;;;;;;11.98;4.75;;;;;;;25.07;50.54;99376.59;4896648;29;20414;-95
2022/05/25 09:20:39;;;;;;;7.53;4.22;;;;;;;24.95;50.34;99381.13;4951986;28;20043;-96
2022/05/25 09:23:07;;;;;;;20.35;5.30;;;;;;;24.70;50.95;99380.66;4926469;29;20023;-94
2022/05/25 09:25:46;;;;;;;9.07;4.50;;;;;;;24.99;50.68;99379.25;4928904;29;20031;-94
2022/05/25 09:28:19;;;;;;;7.40;3.85;;;;;;;25.00;49.82;99360.75;4948875;29;20018;-95
2022/05/25 09:30:48;;;;;;;8.68;4.00;;;;;;;25.26;49.77;99375.81;4945760;29;20031;-95
2022/05/25 09:33:34;;;;;;;8.27;4.10;;;;;;;25.31;49.51;99370.00;4927737;29;20106;-94
2022/05/25 09:36:16;;;;;;;9.88;4.95;;;;;;;25.45;48.70;99372.19;4941069;28;20106;-93
2022/05/25 09:39:05;;;;;;;6.38;3.88;;;;;;;25.49;47.88;99382.09;4942609;29;20020;-96
2022/05/25 09:41:32;;;;;;;11.13;4.43;;;;;;;25.51;49.13;99366.00;4940505;29;20095;-93
2022/05/25 09:44:06;;;;;;;7.47;4.20;;;;;;;25.51;47.25;99362.44;4956256;28;20027;-94
2022/05/25 09:46:39;;;;;;;6.97;4.65;;;;;;;25.50;47.43;99350.59;4942932;29;20023;-93
2022/05/25 09:49:06;;;;;;;9.25;4.32;;;;;;;25.67;48.04;99365.88;4929697;29;20393;-95
2022/05/25 09:51:50;;;;;;;7.82;4.18;;;;;;;25.70;46.84;99345.00;4928281;29;20035;-95
2022/05/25 09:54:26;;;;;;;12.30;5.30;;;;;;;25.83;48.50;99353.88;4952928;28;20117;-93
2022/05/25 09:57:00;;;;;;;6.57;4.28;;;;;;;25.69;47.46;99329.63;4964653;28;20037;-92
2022/05/25 09:59:29;;;;;;;13.13;4.93;;;;;;;26.03;47.98;99360.09;4966049;28;20034;-92
2022/05/25 10:01:55;;;;;;;11.80;5.45;;;;;;;26.14;46.63;99359.06;4982523;28;20117;-93
2022/05/25 10:04:56;;;;;;;8.55;4.50;;;;;;;26.22;46.36;99351.69;4964745;28;20113;-91
2022/05/25 10:08:14;;;;;;;8.27;4.60;;;;;;;26.16;46.45;99350.41;4971263;28;20082;-94
2022/05/25 10:14:24;;;;;;;6.43;4.25;;;;;;;26.18;47.56;99343.34;5007369;28;20049;-96
2022/05/25 10:17:25;;;;;;;;;;;;;;;;;;;;;
2022/05/25 10:19:57;;;;;;;;;;;;;;;26.48;47.79;99348.06;4988790;28;20117;-96
2022/05/25 10:22:54;;;;;;;10.23;5.03;;;;;;;26.51;47.31;99354.81;4997395;28;19938;-92
2022/05/25 10:25:48;;;;;;;12.40;5.80;;;;;;;26.53;47.30;99350.47;5000827;28;20034;-94
2022/05/25 10:28:35;;;;;;;12.88;4.80;;;;;;;26.47;47.52;99327.13;4995922;28;20030;-95
2022/05/25 10:37:36;;;;;;;8.38;4.97;;;;;;;26.72;47.55;99346.78;4961422;29;20449;-95
2022/05/25 10:40:09;;;;;;;7.70;5.28;;;;;;;26.79;47.41;99333.06;4938254;29;20027;-96
2022/05/25 10:42:51;;;;;;;7.35;5.07;;;;;;;26.92;47.19;99330.81;4947939;29;20031;-95
2022/05/25 10:45:34;;;;;;;13.93;5.38;;;;;;;27.06;47.13;99346.75;4934205;29;20077;-95
2022/05/25 10:48:44;;;;;;;12.18;5.07;;;;;;;26.90;46.94;99322.09;4932343;29;20061;-94
2022/05/25 10:51:39;;;;;;;14.80;5.47;;;;;;;26.93;47.24;99326.06;4957933;28;20090;-94
2022/05/25 10:55:01;;;;;;;7.70;4.75;;;;;;;27.02;46.35;99332.09;4956258;28;20050;-96
2022/05/25 10:58:07;;;;;;;8.45;5.63;;;;;;;27.24;46.53;99354.44;4961530;28;20019;-92
2022/05/25 11:00:44;;;;;;;7.60;4.90;;;;;;;27.07;45.96;99337.25;4927797;28;20050;-93
2022/05/25 11:03:14;;;;;;;11.32;5.43;;;;;;;27.11;46.85;99340.84;4947142;28;20125;-93
2022/05/25 11:06:35;;;;;;;11.35;5.13;;;;;;;27.23;45.77;99345.34;4978775;28;20041;-94
2022/05/25 11:09:34;;;;;;;8.88;4.80;;;;;;;27.26;45.45;99333.50;4985332;28;20091;-94
2022/05/25 11:12:29;;;;;;;10.52;4.82;;;;;;;27.41;45.45;99354.59;4982398;28;20117;-94
2022/05/25 11:15:17;;;;;;;8.82;4.80;;;;;;;27.52;45.35;99351.13;4963283;28;20498;-93
2022/05/25 11:17:58;;;;;;;8.70;4.50;;;;;;;27.55;44.98;99334.53;4962794;28;20042;-94
2022/05/25 11:20:28;;;;;;;7.78;4.63;;;;;;;27.40;44.84;99324.53;4959678;28;20030;-93
2022/05/25 11:23:04;;;;;;;14.10;4.95;;;;;;;27.52;45.28;99340.84;4941989;28;20034;-92
2022/05/25 11:25:35;;;;;;;11.23;5.32;;;;;;;27.59;45.51;99332.56;4976015;28;20089;-92
2022/05/25 11:28:11;;;;;;;;;;;;;;;27.64;44.55;99350.00;4978202;28;20478;-96
2022/05/25 11:31:08;;;;;;;8.32;4.65;;;;;;;27.77;44.23;99345.75;4962335;28;19910;-93
2022/05/25 11:33:58;;;;;;;9.63;5.22;;;;;;;27.67;44.38;99330.66;4960585;28;20349;-94
2022/05/25 11:37:07;;;;;;;7.65;5.13;;;;;;;27.73;43.97;99334.66;4962819;28;20047;-94
2022/05/25 11:39:50;;;;;;;10.48;4.97;;;;;;;27.70;44.74;99296.69;4965979;28;20066;-94
2022/05/25 11:42:46;;;;;;;12.65;4.70;;;;;;;27.87;44.46;99324.88;4982255;28;20053;-94
2022/05/25 11:48:56;;;;;;;12.65;5.68;;;;;;;28.17;44.67;99317.13;4983433;28;20034;-94
2022/05/25 11:51:40;;;;;;;14.20;6.10;;;;;;;28.11;44.50;99292.97;4958996;28;20118;-94
2022/05/25 11:57:45;;;;;;;;;;;;;;;28.50;43.37;99311.75;4974397;28;20101;-94
2022/05/25 12:11:35;;;;;;;12.57;4.80;;;;;;;28.84;41.26;99317.75;4915640;29;20094;-93
2022/05/25 12:28:10;;;;;;;10.25;4.72;;;;;;;29.34;40.00;99261.53;4890022;29;19927;-93
2022/05/25 12:34:35;;;;;;;16.88;5.30;;;;;;;29.42;39.81;99272.22;4876562;29;20051;-96
2022/05/25 12:37:02;;;;;;;15.60;5.00;;;;;;;29.48;40.96;99267.06;4915064;29;20062;-92
2022/05/25 12:50:01;;;;;;;10.30;4.90;;;;;;;29.89;39.90;99268.59;4916028;29;20027;-93
2022/05/25 12:55:22;;;;;;;10.55;4.35;;;;;;;29.87;37.97;99260.66;4953285;28;20059;-93
2022/05/25 12:57:51;;;;;;;6.88;4.10;;;;;;;29.72;38.67;99261.91;4923898;29;20031;-90
2022/05/25 13:04:51;;;;;;;7.85;4.78;;;;;;;29.82;38.73;99255.50;4985345;28;20030;-93
2022/05/25 13:17:48;;;;;;;;;;;;;;;30.21;38.41;99279.56;4975994;28;20045;-94
2022/05/25 13:20:26;;;;;;;9.10;4.25;;;;;;;30.31;37.80;99270.41;4973589;28;19910;-93
2022/05/25 13:23:32;;;;;;;;;;;;;;;;;;;;;
2022/05/25 13:26:48;;;;;;;7.35;4.43;;;;;;;30.75;36.29;99268.94;4988655;28;20161;-96
2022/05/25 13:29:37;;;;;;;13.10;5.20;;;;;;;30.78;37.11;99251.47;5178289;23;20055;-95
2022/05/25 13:32:22;;;;;;;11.70;5.72;;;;;;;30.75;36.12;99229.25;4963299;28;20038;-91
2022/05/25 13:35:01;;;;;;;;;;;;;;;;;;;;;
2022/05/25 13:37:33;;;;;;;12.05;5.45;;;;;;;31.35;35.44;99244.63;4963077;28;20049;-92
2022/05/25 13:40:32;;;;;;;11.93;4.75;;;;;;;31.55;35.04;99242.06;4944207;28;20042;-92
2022/05/25 13:43:46;;;;;;;7.35;4.50;;;;;;;30.95;34.90;99232.31;4958030;28;20035;-93
2022/05/25 13:46:27;;;;;;;12.02;5.30;;;;;;;31.51;35.32;99232.19;4985985;28;20038;-91
2022/05/25 13:48:58;;;;;;;11.68;5.50;;;;;;;31.74;35.04;99235.09;4940247;28;20034;-93
2022/05/25 13:51:27;;;;;;;12.98;5.47;;;;;;;31.87;34.07;99243.69;4944188;28;20046;-93
2022/05/25 13:54:07;;;;;;;7.68;4.40;;;;;;;32.34;33.47;99248.72;4944583;28;20030;-94
2022/05/25 13:57:05;;;;;;;8.73;4.10;;;;;;;32.64;32.39;99233.94;4961984;28;20105;-95
2022/05/25 13:59:42;;;;;;;10.00;4.60;;;;;;;33.20;32.28;99252.97;4963804;28;20282;-94
2022/05/25 14:36:35;;;;;;;12.73;6.07;;;;;;;35.83;28.84;99231.09;4869161;29;20044;-94
2022/05/25 14:39:51;;;;;;;;;;;;;;;;;;;;;
2022/05/25 14:45:39;;;;;;;17.65;7.00;;;;;;;35.79;29.49;99231.97;4902995;29;20044;-93
2022/05/25 14:48:07;;;;;;;10.25;6.75;;;;;;;35.95;29.15;99221.91;4886453;29;20029;-95
2022/05/25 15:31:38;;;;;;;28.48;14.57;;;;;;;31.12;36.94;99230.56;4965534;28;20067;-95
2022/05/25 15:34:54;;;;;;;21.20;11.48;;;;;;;30.97;36.97;99264.06;4950755;28;20089;-96
2022/05/25 15:40:32;;;;;;;22.30;13.00;;;;;;;30.38;38.75;99255.69;4935148;28;20507;-95
2022/05/25 15:42:57;;;;;;;;;;;;;;;30.20;38.80;99251.00;4915296;29;20035;-93
2022/05/25 15:45:48;;;;;;;23.27;13.27;;;;;;;29.82;39.46;99224.97;4950473;29;19917;-96
2022/05/25 15:48:35;;;;;;;17.43;13.43;;;;;;;29.56;40.43;99221.47;4934881;29;20033;-95
2022/05/25 16:01:34;;;;;;;32.08;15.18;;;;;;;29.35;41.64;99238.19;4936300;29;19934;-95